createdAt,value
2023-03-22T04:45:32.136Z,10.80
2023-03-22T04:47:59.212Z,10.70
2023-03-22T04:50:28.111Z,10.70
2023-03-22T04:52:55.145Z,10.70
2023-03-22T04:55:22.165Z,10.70
2023-03-22T04:57:49.057Z,10.70
2023-03-22T05:00:17.251Z,10.60
2023-03-22T05:02:44.237Z,10.60
2023-03-22T05:05:11.170Z,10.60
2023-03-22T05:07:39.154Z,10.60
2023-03-22T05:10:07.053Z,10.60
2023-03-22T05:12:33.989Z,10.50
2023-03-22T05:15:03.664Z,10.50
2023-03-22T05:17:30.770Z,10.40
2023-03-22T05:19:57.677Z,10.40
2023-03-22T05:22:24.609Z,10.40
2023-03-22T05:24:51.699Z,10.30
2023-03-22T05:27:30.155Z,10.30
2023-03-22T05:29:57.297Z,10.30
2023-03-22T05:32:25.550Z,10.30
2023-03-22T05:34:52.576Z,10.30
2023-03-22T05:37:21.050Z,10.30
2023-03-22T05:39:48.004Z,10.30
2023-03-22T05:42:14.893Z,10.20
2023-03-22T05:44:41.840Z,10.20
2023-03-22T05:47:09.873Z,10.20
2023-03-22T05:49:37.161Z,10.20
2023-03-22T05:52:07.176Z,10.20
2023-03-22T05:54:34.087Z,10.20
2023-03-22T05:57:01.041Z,10.20
2023-03-22T05:59:28.042Z,10.20
2023-03-22T06:01:54.976Z,10.10
2023-03-22T06:04:22.030Z,10.10
2023-03-22T06:06:49.032Z,10.10
2023-03-22T06:09:17.844Z,10.10
2023-03-22T06:11:45.237Z,10.10
2023-03-22T06:14:12.168Z,10.10
2023-03-22T06:16:39.116Z,10.10
2023-03-22T06:19:06.160Z,10.20
2023-03-22T06:21:33.103Z,10.20
2023-03-22T06:24:00.410Z,10.20
2023-03-22T06:26:27.314Z,10.20
2023-03-22T06:28:54.256Z,10.20
2023-03-22T06:31:21.222Z,10.20
2023-03-22T06:33:48.184Z,10.20
2023-03-22T06:36:15.339Z,10.20
2023-03-22T06:38:42.447Z,10.20
2023-03-22T06:41:09.489Z,10.30
2023-03-22T06:43:36.506Z,10.30
2023-03-22T06:46:03.545Z,10.40
2023-03-22T06:48:30.524Z,10.40
2023-03-22T06:50:57.494Z,10.40
2023-03-22T06:53:24.435Z,10.50
2023-03-22T06:55:55.225Z,10.50
2023-03-22T06:58:22.502Z,10.50
2023-03-22T07:00:49.567Z,10.60
2023-03-22T07:03:16.573Z,10.60
2023-03-22T07:05:43.591Z,10.70
2023-03-22T07:08:10.494Z,10.70
2023-03-22T07:10:37.547Z,10.80
2023-03-22T07:13:04.627Z,10.90
2023-03-22T07:15:32.839Z,10.90
2023-03-22T07:18:02.671Z,11.00
2023-03-22T07:20:29.590Z,11.00
2023-03-22T07:22:56.454Z,11.10
2023-03-22T07:25:23.392Z,11.10
2023-03-22T07:27:50.449Z,11.20
2023-03-22T07:30:17.452Z,11.40
2023-03-22T07:32:44.549Z,11.30
2023-03-22T07:35:11.693Z,11.40
2023-03-22T07:37:38.677Z,11.40
2023-03-22T07:40:06.076Z,11.50
2023-03-22T07:42:34.488Z,11.60
2023-03-22T07:45:01.514Z,11.70
2023-03-22T07:47:40.397Z,11.70
2023-03-22T07:50:09.518Z,11.80
2023-03-22T07:52:36.751Z,11.80
2023-03-22T07:55:04.167Z,11.80
2023-03-22T07:57:31.093Z,11.90
2023-03-22T07:59:58.043Z,12.00
2023-03-22T08:02:25.609Z,12.10
2023-03-22T08:04:56.470Z,12.20
2023-03-22T08:07:25.134Z,12.30
2023-03-22T08:09:52.125Z,12.40
2023-03-22T08:12:19.243Z,12.40
2023-03-22T08:14:50.414Z,12.60
2023-03-22T08:17:18.142Z,12.60
2023-03-22T08:19:45.454Z,12.80
2023-03-22T08:22:13.355Z,12.80
2023-03-22T08:24:40.242Z,13.00
2023-03-22T08:27:07.190Z,13.00
2023-03-22T08:29:34.067Z,13.10
2023-03-22T08:32:02.365Z,13.30
2023-03-22T08:34:29.892Z,13.20
2023-03-22T08:36:56.858Z,13.30
2023-03-22T08:39:24.708Z,13.40
2023-03-22T08:41:51.876Z,13.50
2023-03-22T08:44:18.776Z,13.60
2023-03-22T08:46:45.708Z,13.70
2023-03-22T08:49:12.729Z,13.70
2023-03-22T08:51:39.638Z,13.90
2023-03-22T08:54:06.871Z,13.90
2023-03-22T08:56:38.187Z,14.00
2023-03-22T08:59:06.495Z,14.00
2023-03-22T09:01:33.856Z,14.10
2023-03-22T09:04:00.880Z,14.20
2023-03-22T09:06:27.799Z,14.20
2023-03-22T09:08:54.746Z,14.30
2023-03-22T09:11:22.121Z,14.40
2023-03-22T09:13:49.573Z,14.50
2023-03-22T09:16:16.902Z,14.50
2023-03-22T09:18:44.042Z,14.70
2023-03-22T09:21:11.306Z,14.70
2023-03-22T09:23:38.246Z,14.80
2023-03-22T09:26:06.345Z,14.80
2023-03-22T09:28:33.716Z,14.80
2023-03-22T09:31:01.812Z,14.90
2023-03-22T09:33:28.890Z,15.00
2023-03-22T09:35:56.959Z,15.10
2023-03-22T09:38:24.927Z,15.10
2023-03-22T09:40:53.454Z,15.20
2023-03-22T09:43:20.759Z,15.20
2023-03-22T09:45:50.224Z,15.30
2023-03-22T09:48:20.133Z,15.40
2023-03-22T09:50:49.293Z,15.40
2023-03-22T09:53:17.078Z,15.50
2023-03-22T09:55:59.692Z,15.50
2023-03-22T09:58:46.674Z,15.50
2023-03-22T10:01:13.691Z,15.60
2023-03-22T10:03:40.759Z,15.70
2023-03-22T10:06:07.694Z,15.70
2023-03-22T10:08:51.466Z,15.70
2023-03-22T10:11:24.888Z,15.80
2023-03-22T10:14:01.941Z,15.80
2023-03-22T10:16:33.037Z,15.90
2023-03-22T10:19:13.718Z,16.00
2023-03-22T10:21:41.742Z,16.00
2023-03-22T10:24:19.903Z,16.10
2023-03-22T10:26:47.595Z,16.20
2023-03-22T10:29:30.592Z,16.20
2023-03-22T10:32:02.766Z,16.30
2023-03-22T10:34:31.238Z,16.30
2023-03-22T10:37:01.141Z,16.40
2023-03-22T10:39:40.074Z,16.50
2023-03-22T10:42:18.159Z,16.60
2023-03-22T10:44:54.029Z,16.50
2023-03-22T10:47:25.976Z,16.60
2023-03-22T10:49:55.065Z,16.60
2023-03-22T10:52:36.908Z,16.60
2023-03-22T10:55:04.726Z,16.60
2023-03-22T10:57:31.942Z,16.70
2023-03-22T10:59:58.916Z,16.70
2023-03-22T11:02:30.453Z,16.80
2023-03-22T11:04:58.681Z,16.90
2023-03-22T11:07:28.447Z,16.90
2023-03-22T11:10:04.166Z,17.00
2023-03-22T11:12:31.124Z,17.10
2023-03-22T11:14:58.007Z,17.10
2023-03-22T11:17:28.329Z,17.20
2023-03-22T11:19:57.975Z,17.20
2023-03-22T11:22:37.414Z,17.30
2023-03-22T11:25:07.514Z,17.30
2023-03-22T11:27:34.546Z,17.40
2023-03-22T11:30:20.233Z,17.40
2023-03-22T11:32:47.569Z,17.50
2023-03-22T11:35:16.199Z,17.60
2023-03-22T11:37:44.100Z,17.60
2023-03-22T11:40:41.027Z,17.50
2023-03-22T11:43:16.947Z,17.60
2023-03-22T11:45:44.269Z,17.70
2023-03-22T11:48:16.341Z,17.70
2023-03-22T11:50:44.752Z,17.80
2023-03-22T11:53:16.655Z,18.10
2023-03-22T11:55:44.500Z,17.90
2023-03-22T11:58:24.058Z,18.10
2023-03-22T12:00:52.434Z,18.00
2023-03-22T12:03:21.771Z,18.00
2023-03-22T12:05:50.000Z,18.00
2023-03-22T12:08:35.539Z,18.10
2023-03-22T12:11:06.948Z,18.20
2023-03-22T12:13:52.740Z,18.20
2023-03-22T12:16:25.102Z,18.30
2023-03-22T12:19:10.850Z,18.30
2023-03-22T12:21:37.721Z,18.30
2023-03-22T12:24:22.465Z,18.40
2023-03-22T12:26:50.171Z,18.40
2023-03-22T12:29:18.282Z,18.30
2023-03-22T12:31:59.178Z,18.30
2023-03-22T12:34:32.719Z,18.30
2023-03-22T12:37:01.776Z,18.40
2023-03-22T12:39:31.444Z,18.40
2023-03-22T12:42:02.482Z,18.40
2023-03-22T12:44:33.219Z,18.50
2023-03-22T12:47:12.131Z,18.60
2023-03-22T12:49:52.575Z,18.70
2023-03-22T12:52:23.466Z,18.70
2023-03-22T12:54:52.153Z,18.70
2023-03-22T12:57:19.274Z,18.80
2023-03-22T12:59:49.007Z,18.90
2023-03-22T13:02:23.313Z,18.90
2023-03-22T13:04:52.020Z,18.90
2023-03-22T13:07:28.952Z,18.80
2023-03-22T13:09:56.261Z,18.80
2023-03-22T13:12:24.569Z,18.90
2023-03-22T13:15:23.834Z,19.00
2023-03-22T13:17:56.258Z,19.10
2023-03-22T13:20:27.697Z,19.10
2023-03-22T13:23:08.826Z,19.10
2023-03-22T13:25:36.706Z,19.20
2023-03-22T13:28:06.590Z,19.20
2023-03-22T13:30:46.890Z,19.40
2023-03-22T13:33:15.093Z,19.30
2023-03-22T13:35:52.773Z,19.30
2023-03-22T13:38:28.598Z,19.40
2023-03-22T13:41:07.082Z,19.50
2023-03-22T13:43:43.114Z,19.50
2023-03-22T13:46:12.923Z,19.50
2023-03-22T13:48:45.949Z,19.50
2023-03-22T13:51:15.950Z,19.50
2023-03-22T13:53:47.087Z,19.40
2023-03-22T13:56:27.498Z,19.50
2023-03-22T13:58:54.580Z,19.40
2023-03-22T14:01:21.578Z,19.40
2023-03-22T14:03:50.221Z,19.30
2023-03-22T14:06:24.270Z,19.40
2023-03-22T14:08:55.598Z,19.40
2023-03-22T14:11:41.054Z,19.50
2023-03-22T14:14:12.394Z,19.60
2023-03-22T14:17:00.236Z,19.60
2023-03-22T14:19:29.083Z,19.70
